sensor_id;sensor_type;location;lat;lon;timestamp;pressure;altitude;pressure_sealevel;temperature;humidity
82033;BME280;71595;52.180;4.512;2023-11-19T00:01:09;100794.75;;;12.82;89.95
82033;BME280;71595;52.180;4.512;2023-11-19T00:03:34;100806.19;;;12.80;89.97
82033;BME280;71595;52.180;4.512;2023-11-19T00:06:00;100805.38;;;12.80;89.98
82033;BME280;71595;52.180;4.512;2023-11-19T00:08:26;100828.25;;;12.76;90.13
82033;BME280;71595;52.180;4.512;2023-11-19T00:10:52;100836.22;;;12.78;89.80
82033;BME280;71595;52.180;4.512;2023-11-19T00:13:17;100827.44;;;12.76;89.82
82033;BME280;71595;52.180;4.512;2023-11-19T00:15:43;100826.63;;;12.75;89.93
82033;BME280;71595;52.180;4.512;2023-11-19T00:18:10;100813.94;;;12.74;89.87
82033;BME280;71595;52.180;4.512;2023-11-19T00:20:35;100804.38;;;12.72;89.87
82033;BME280;71595;52.180;4.512;2023-11-19T00:23:01;100809.31;;;12.79;89.76
82033;BME280;71595;52.180;4.512;2023-11-19T00:25:27;100806.53;;;12.79;89.78
82033;BME280;71595;52.180;4.512;2023-11-19T00:27:53;100796.59;;;12.77;89.73
82033;BME280;71595;52.180;4.512;2023-11-19T00:30:19;100798.56;;;12.77;89.41
82033;BME280;71595;52.180;4.512;2023-11-19T00:32:44;100810.81;;;12.76;89.92
82033;BME280;71595;52.180;4.512;2023-11-19T00:35:10;100795.00;;;12.76;89.86
82033;BME280;71595;52.180;4.512;2023-11-19T00:37:36;100796.97;;;12.76;90.22
82033;BME280;71595;52.180;4.512;2023-11-19T00:40:01;100798.03;;;12.71;90.27
82033;BME280;71595;52.180;4.512;2023-11-19T00:42:30;100800.00;;;12.71;90.12
82033;BME280;71595;52.180;4.512;2023-11-19T00:44:55;100801.97;;;12.70;90.25
82033;BME280;71595;52.180;4.512;2023-11-19T00:47:21;100805.53;;;12.71;90.21
82033;BME280;71595;52.180;4.512;2023-11-19T00:49:49;100808.66;;;12.69;89.89
82033;BME280;71595;52.180;4.512;2023-11-19T00:52:16;100789.28;;;12.69;89.92
82033;BME280;71595;52.180;4.512;2023-11-19T00:54:41;100779.81;;;12.70;89.57
82033;BME280;71595;52.180;4.512;2023-11-19T00:57:06;100780.53;;;12.67;89.67
82033;BME280;71595;52.180;4.512;2023-11-19T00:59:32;100788.47;;;12.69;89.52
82033;BME280;71595;52.180;4.512;2023-11-19T01:01:58;100783.72;;;12.69;89.65
82033;BME280;71595;52.180;4.512;2023-11-19T01:04:24;100787.66;;;12.68;89.48
82033;BME280;71595;52.180;4.512;2023-11-19T01:06:49;100771.03;;;12.68;89.43
82033;BME280;71595;52.180;4.512;2023-11-19T01:09:15;100758.72;;;12.66;89.59
82033;BME280;71595;52.180;4.512;2023-11-19T01:11:40;100759.06;;;12.64;89.56
82033;BME280;71595;52.180;4.512;2023-11-19T01:14:06;100770.84;;;12.61;89.34
82033;BME280;71595;52.180;4.512;2023-11-19T01:16:31;100766.94;;;12.62;88.90
82033;BME280;71595;52.180;4.512;2023-11-19T01:18:56;100773.19;;;12.59;88.96
82033;BME280;71595;52.180;4.512;2023-11-19T01:21:22;100775.94;;;12.59;88.87
82033;BME280;71595;52.180;4.512;2023-11-19T01:23:47;100764.88;;;12.59;88.69
82033;BME280;71595;52.180;4.512;2023-11-19T01:26:13;100767.66;;;12.59;88.41
82033;BME280;71595;52.180;4.512;2023-11-19T01:28:39;100756.56;;;12.59;88.09
82033;BME280;71595;52.180;4.512;2023-11-19T01:31:05;100767.28;;;12.61;87.59
82033;BME280;71595;52.180;4.512;2023-11-19T01:33:32;100765.31;;;12.61;87.20
82033;BME280;71595;52.180;4.512;2023-11-19T01:35:57;100777.53;;;12.60;86.88
82033;BME280;71595;52.180;4.512;2023-11-19T01:38:24;100782.66;;;12.58;87.20
82033;BME280;71595;52.180;4.512;2023-11-19T01:40:49;100791.41;;;12.60;86.64
82033;BME280;71595;52.180;4.512;2023-11-19T01:43:34;100788.19;;;12.58;86.80
82033;BME280;71595;52.180;4.512;2023-11-19T01:46:01;100787.38;;;12.57;86.83
82033;BME280;71595;52.180;4.512;2023-11-19T01:48:29;100787.75;;;12.56;86.71
82033;BME280;71595;52.180;4.512;2023-11-19T01:50:55;100778.53;;;12.52;87.06
82033;BME280;71595;52.180;4.512;2023-11-19T01:53:21;100771.38;;;12.51;86.84
82033;BME280;71595;52.180;4.512;2023-11-19T01:55:47;100770.47;;;12.47;86.76
82033;BME280;71595;52.180;4.512;2023-11-19T01:58:13;100779.94;;;12.46;87.16
82033;BME280;71595;52.180;4.512;2023-11-19T02:00:40;100778.31;;;12.45;87.00
82033;BME280;71595;52.180;4.512;2023-11-19T02:03:06;100778.59;;;12.39;87.27
82033;BME280;71595;52.180;4.512;2023-11-19T02:05:33;100801.44;;;12.36;87.13
82033;BME280;71595;52.180;4.512;2023-11-19T02:08:00;100804.22;;;12.36;87.30
82033;BME280;71595;52.180;4.512;2023-11-19T02:10:26;100811.38;;;12.37;87.45
82033;BME280;71595;52.180;4.512;2023-11-19T02:12:51;100808.25;;;12.39;87.14
82033;BME280;71595;52.180;4.512;2023-11-19T02:15:17;100788.75;;;12.35;87.20
82033;BME280;71595;52.180;4.512;2023-11-19T02:17:44;100784.72;;;12.33;87.05
82033;BME280;71595;52.180;4.512;2023-11-19T02:20:10;100774.44;;;12.33;86.96
82033;BME280;71595;52.180;4.512;2023-11-19T02:22:40;100790.63;;;12.31;86.90
82033;BME280;71595;52.180;4.512;2023-11-19T02:25:07;100780.25;;;12.28;86.80
82033;BME280;71595;52.180;4.512;2023-11-19T02:27:43;100770.78;;;12.29;86.56
82033;BME280;71595;52.180;4.512;2023-11-19T02:30:11;100770.78;;;12.29;86.69
82033;BME280;71595;52.180;4.512;2023-11-19T02:32:36;100771.25;;;12.31;86.45
82033;BME280;71595;52.180;4.512;2023-11-19T02:35:06;100773.53;;;12.29;86.14
82033;BME280;71595;52.180;4.512;2023-11-19T02:37:33;100771.47;;;12.26;86.03
82033;BME280;71595;52.180;4.512;2023-11-19T02:39:59;100776.22;;;12.26;86.01
82033;BME280;71595;52.180;4.512;2023-11-19T02:42:34;100773.81;;;12.24;86.64
82033;BME280;71595;52.180;4.512;2023-11-19T02:45:00;100777.00;;;12.26;86.28
82033;BME280;71595;52.180;4.512;2023-11-19T02:47:26;100774.06;;;12.19;86.00
82033;BME280;71595;52.180;4.512;2023-11-19T02:49:55;100773.59;;;12.17;85.82
82033;BME280;71595;52.180;4.512;2023-11-19T02:52:21;100767.25;;;12.16;85.54
82033;BME280;71595;52.180;4.512;2023-11-19T02:54:46;100760.94;;;12.16;85.79
82033;BME280;71595;52.180;4.512;2023-11-19T02:57:12;100770.72;;;12.13;85.77
82033;BME280;71595;52.180;4.512;2023-11-19T02:59:40;100773.84;;;12.12;85.53
82033;BME280;71595;52.180;4.512;2023-11-19T03:02:08;100775.03;;;12.11;85.78
82033;BME280;71595;52.180;4.512;2023-11-19T03:04:37;100768.31;;;12.12;85.47
82033;BME280;71595;52.180;4.512;2023-11-19T03:07:06;100773.59;;;12.17;84.35
82033;BME280;71595;52.180;4.512;2023-11-19T03:09:32;100761.28;;;12.14;84.98
82033;BME280;71595;52.180;4.512;2023-11-19T03:11:59;100768.75;;;12.14;84.98
82033;BME280;71595;52.180;4.512;2023-11-19T03:14:25;100768.66;;;12.10;85.03
82033;BME280;71595;52.180;4.512;2023-11-19T03:16:51;100761.97;;;12.11;84.81
82033;BME280;71595;52.180;4.512;2023-11-19T03:19:16;100759.66;;;12.13;84.64
82033;BME280;71595;52.180;4.512;2023-11-19T03:21:41;100751.25;;;12.10;84.70
82033;BME280;71595;52.180;4.512;2023-11-19T03:24:07;100748.03;;;12.08;84.55
82033;BME280;71595;52.180;4.512;2023-11-19T03:26:33;100742.50;;;12.08;84.68
82033;BME280;71595;52.180;4.512;2023-11-19T03:28:59;100734.91;;;12.04;84.89
82033;BME280;71595;52.180;4.512;2023-11-19T03:31:24;100734.00;;;12.00;84.96
82033;BME280;71595;52.180;4.512;2023-11-19T03:33:50;100735.13;;;11.99;85.37
82033;BME280;71595;52.180;4.512;2023-11-19T03:36:16;100756.03;;;11.97;84.82
82033;BME280;71595;52.180;4.512;2023-11-19T03:38:42;100769.06;;;11.96;84.64
82033;BME280;71595;52.180;4.512;2023-11-19T03:41:14;100760.75;;;11.96;84.81
82033;BME280;71595;52.180;4.512;2023-11-19T03:43:40;100761.78;;;11.92;84.85
82033;BME280;71595;52.180;4.512;2023-11-19T03:46:19;100763.06;;;11.94;84.38
82033;BME280;71595;52.180;4.512;2023-11-19T03:48:46;100767.81;;;11.94;84.74
82033;BME280;71595;52.180;4.512;2023-11-19T03:51:11;100771.94;;;11.87;84.48
82033;BME280;71595;52.180;4.512;2023-11-19T03:53:43;100770.31;;;11.86;85.00
82033;BME280;71595;52.180;4.512;2023-11-19T03:56:09;100773.88;;;11.87;84.19
82033;BME280;71595;52.180;4.512;2023-11-19T03:58:35;100776.66;;;11.87;84.39
82033;BME280;71595;52.180;4.512;2023-11-19T04:01:01;100780.69;;;11.90;83.96
82033;BME280;71595;52.180;4.512;2023-11-19T04:03:26;100782.31;;;11.91;83.65
82033;BME280;71595;52.180;4.512;2023-11-19T04:05:52;100785.44;;;11.89;83.64
82033;BME280;71595;52.180;4.512;2023-11-19T04:08:17;100788.91;;;11.86;83.86
82033;BME280;71595;52.180;4.512;2023-11-19T04:10:42;100781.41;;;11.86;83.48
82033;BME280;71595;52.180;4.512;2023-11-19T04:13:08;100784.50;;;11.85;83.19
82033;BME280;71595;52.180;4.512;2023-11-19T04:15:33;100776.66;;;11.87;82.82
82033;BME280;71595;52.180;4.512;2023-11-19T04:17:58;100787.03;;;11.90;82.15
82033;BME280;71595;52.180;4.512;2023-11-19T04:20:24;100789.34;;;11.88;82.59
82033;BME280;71595;52.180;4.512;2023-11-19T04:22:50;100792.47;;;11.86;82.77
82033;BME280;71595;52.180;4.512;2023-11-19T04:25:16;100771.81;;;11.84;82.83
82033;BME280;71595;52.180;4.512;2023-11-19T04:27:42;100772.53;;;11.81;82.78
82033;BME280;71595;52.180;4.512;2023-11-19T04:30:07;100764.69;;;11.83;81.75
82033;BME280;71595;52.180;4.512;2023-11-19T04:32:35;100773.34;;;11.81;81.73
82033;BME280;71595;52.180;4.512;2023-11-19T04:35:00;100782.44;;;11.82;81.33
82033;BME280;71595;52.180;4.512;2023-11-19T04:37:26;100774.84;;;11.79;81.86
82033;BME280;71595;52.180;4.512;2023-11-19T04:39:51;100771.72;;;11.80;81.45
82033;BME280;71595;52.180;4.512;2023-11-19T04:42:16;100766.19;;;11.80;81.49
82033;BME280;71595;52.180;4.512;2023-11-19T04:44:43;100769.75;;;11.81;81.10
82033;BME280;71595;52.180;4.512;2023-11-19T04:47:08;100780.47;;;11.82;80.94
82033;BME280;71595;52.180;4.512;2023-11-19T04:49:40;100768.97;;;11.80;80.62
82033;BME280;71595;52.180;4.512;2023-11-19T04:52:05;100767.25;;;11.76;81.47
82033;BME280;71595;52.180;4.512;2023-11-19T04:54:30;100777.97;;;11.77;81.14
82033;BME280;71595;52.180;4.512;2023-11-19T04:56:56;100791.00;;;11.77;81.04
82033;BME280;71595;52.180;4.512;2023-11-19T04:59:21;100778.31;;;11.76;81.20
82033;BME280;71595;52.180;4.512;2023-11-19T05:01:47;100784.97;;;11.75;81.09
82033;BME280;71595;52.180;4.512;2023-11-19T05:04:13;100796.03;;;11.75;80.66
82033;BME280;71595;52.180;4.512;2023-11-19T05:06:38;100789.72;;;11.74;80.42
82033;BME280;71595;52.180;4.512;2023-11-19T05:09:04;100785.47;;;11.77;80.21
82033;BME280;71595;52.180;4.512;2023-11-19T05:11:38;100802.41;;;11.75;80.74
82033;BME280;71595;52.180;4.512;2023-11-19T05:14:04;100785.69;;;11.72;80.31
82033;BME280;71595;52.180;4.512;2023-11-19T05:16:30;100799.50;;;11.72;80.37
82033;BME280;71595;52.180;4.512;2023-11-19T05:18:55;100795.94;;;11.71;80.52
82033;BME280;71595;52.180;4.512;2023-11-19T05:21:21;100794.31;;;11.70;80.56
82033;BME280;71595;52.180;4.512;2023-11-19T05:23:46;100794.31;;;11.70;81.15
82033;BME280;71595;52.180;4.512;2023-11-19T05:26:19;100798.63;;;11.67;81.41
82033;BME280;71595;52.180;4.512;2023-11-19T05:28:45;100791.13;;;11.68;81.18
82033;BME280;71595;52.180;4.512;2023-11-19T05:31:11;100788.44;;;11.72;80.95
82033;BME280;71595;52.180;4.512;2023-11-19T05:33:36;100801.47;;;11.71;81.04
82033;BME280;71595;52.180;4.512;2023-11-19T05:36:01;100804.59;;;11.69;80.94
82033;BME280;71595;52.180;4.512;2023-11-19T05:38:29;100802.97;;;11.68;81.40
82033;BME280;71595;52.180;4.512;2023-11-19T05:40:54;100802.06;;;11.64;81.27
82033;BME280;71595;52.180;4.512;2023-11-19T05:43:19;100799.75;;;11.66;81.09
82033;BME280;71595;52.180;4.512;2023-11-19T05:45:45;100795.38;;;11.65;81.16
82033;BME280;71595;52.180;4.512;2023-11-19T05:48:10;100797.34;;;11.65;80.86
82033;BME280;71595;52.180;4.512;2023-11-19T05:50:36;100794.91;;;11.63;81.19
82033;BME280;71595;52.180;4.512;2023-11-19T05:53:01;100796.91;;;11.63;81.44
82033;BME280;71595;52.180;4.512;2023-11-19T05:55:26;100791.34;;;11.63;81.05
82033;BME280;71595;52.180;4.512;2023-11-19T05:57:53;100795.63;;;11.60;80.66
82033;BME280;71595;52.180;4.512;2023-11-19T06:00:19;100789.28;;;11.60;81.11
82033;BME280;71595;52.180;4.512;2023-11-19T06:02:45;100794.00;;;11.59;80.95
82033;BME280;71595;52.180;4.512;2023-11-19T06:05:10;100809.34;;;11.57;81.15
82033;BME280;71595;52.180;4.512;2023-11-19T06:07:36;100801.16;;;11.60;80.89
82033;BME280;71595;52.180;4.512;2023-11-19T06:10:02;100798.38;;;11.60;81.35
82033;BME280;71595;52.180;4.512;2023-11-19T06:12:30;100795.63;;;11.60;81.24
82033;BME280;71595;52.180;4.512;2023-11-19T06:14:57;100801.84;;;11.57;81.18
82033;BME280;71595;52.180;4.512;2023-11-19T06:17:22;100809.34;;;11.57;81.49
82033;BME280;71595;52.180;4.512;2023-11-19T06:19:47;100802.78;;;11.61;80.86
82033;BME280;71595;52.180;4.512;2023-11-19T06:22:13;100791.00;;;11.64;80.67
82033;BME280;71595;52.180;4.512;2023-11-19T06:24:38;100803.66;;;11.65;80.24
82033;BME280;71595;52.180;4.512;2023-11-19T06:27:03;100799.75;;;11.66;80.70
82033;BME280;71595;52.180;4.512;2023-11-19T06:29:29;100802.53;;;11.66;81.00
82033;BME280;71595;52.180;4.512;2023-11-19T06:31:55;100789.84;;;11.65;80.59
82033;BME280;71595;52.180;4.512;2023-11-19T06:34:20;100807.25;;;11.66;81.22
82033;BME280;71595;52.180;4.512;2023-11-19T06:36:45;100801.38;;;11.67;81.02
82033;BME280;71595;52.180;4.512;2023-11-19T06:39:11;100803.81;;;11.69;80.41
82033;BME280;71595;52.180;4.512;2023-11-19T06:41:36;100805.03;;;11.72;80.23
82033;BME280;71595;52.180;4.512;2023-11-19T06:44:04;100805.53;;;11.74;80.66
82033;BME280;71595;52.180;4.512;2023-11-19T06:46:30;100805.88;;;11.72;80.98
82033;BME280;71595;52.180;4.512;2023-11-19T06:48:56;100810.56;;;11.72;81.17
82033;BME280;71595;52.180;4.512;2023-11-19T06:51:22;100815.31;;;11.71;80.88
82033;BME280;71595;52.180;4.512;2023-11-19T06:53:47;100822.81;;;11.71;81.16
82033;BME280;71595;52.180;4.512;2023-11-19T06:56:19;100824.53;;;11.75;80.92
82033;BME280;71595;52.180;4.512;2023-11-19T06:58:44;100825.34;;;11.76;80.89
82033;BME280;71595;52.180;4.512;2023-11-19T07:01:10;100820.94;;;11.75;80.81
82033;BME280;71595;52.180;4.512;2023-11-19T07:03:36;100835.72;;;11.79;80.04
82033;BME280;71595;52.180;4.512;2023-11-19T07:06:01;100823.94;;;11.82;80.32
82033;BME280;71595;52.180;4.512;2023-11-19T07:08:26;100815.41;;;11.87;80.02
82033;BME280;71595;52.180;4.512;2023-11-19T07:10:52;100822.09;;;11.86;80.25
82033;BME280;71595;52.180;4.512;2023-11-19T07:13:18;100822.09;;;11.86;80.30
82033;BME280;71595;52.180;4.512;2023-11-19T07:15:50;100821.63;;;11.84;79.96
82033;BME280;71595;52.180;4.512;2023-11-19T07:18:15;100832.69;;;11.84;80.09
82033;BME280;71595;52.180;4.512;2023-11-19T07:20:41;100821.63;;;11.84;79.67
82033;BME280;71595;52.180;4.512;2023-11-19T07:23:06;100812.19;;;11.85;79.34
82033;BME280;71595;52.180;4.512;2023-11-19T07:25:31;100818.88;;;11.84;79.57
82033;BME280;71595;52.180;4.512;2023-11-19T07:27:57;100813.66;;;11.82;79.59
82033;BME280;71595;52.180;4.512;2023-11-19T07:30:22;100827.16;;;11.84;79.92
82033;BME280;71595;52.180;4.512;2023-11-19T07:32:48;100818.41;;;11.82;79.76
82033;BME280;71595;52.180;4.512;2023-11-19T07:35:14;100823.16;;;11.81;79.55
82033;BME280;71595;52.180;4.512;2023-11-19T07:37:41;100827.84;;;11.81;79.81
82033;BME280;71595;52.180;4.512;2023-11-19T07:40:07;100825.56;;;11.83;79.96
82033;BME280;71595;52.180;4.512;2023-11-19T07:42:33;100828.34;;;11.83;79.94
82033;BME280;71595;52.180;4.512;2023-11-19T07:44:58;100823.50;;;11.92;79.00
82033;BME280;71595;52.180;4.512;2023-11-19T07:47:24;100823.50;;;11.92;79.32
82033;BME280;71595;52.180;4.512;2023-11-19T07:49:50;100820.94;;;11.87;79.50
82033;BME280;71595;52.180;4.512;2023-11-19T07:52:16;100825.31;;;11.88;79.54
82033;BME280;71595;52.180;4.512;2023-11-19T07:54:41;100827.06;;;11.93;79.41
82033;BME280;71595;52.180;4.512;2023-11-19T07:57:06;100816.22;;;11.87;79.86
82033;BME280;71595;52.180;4.512;2023-11-19T07:59:32;100827.38;;;11.91;80.02
82033;BME280;71595;52.180;4.512;2023-11-19T08:01:57;100821.19;;;11.94;79.28
82033;BME280;71595;52.180;4.512;2023-11-19T08:04:23;100833.97;;;11.99;79.19
82033;BME280;71595;52.180;4.512;2023-11-19T08:06:49;100830.06;;;12.00;78.93
82033;BME280;71595;52.180;4.512;2023-11-19T08:09:14;100830.88;;;12.00;78.70
82033;BME280;71595;52.180;4.512;2023-11-19T08:11:43;100838.38;;;12.00;78.37
82033;BME280;71595;52.180;4.512;2023-11-19T08:14:08;100835.59;;;12.00;78.48
82033;BME280;71595;52.180;4.512;2023-11-19T08:16:33;100841.94;;;12.00;78.89
82033;BME280;71595;52.180;4.512;2023-11-19T08:18:59;100827.66;;;11.98;78.87
82033;BME280;71595;52.180;4.512;2023-11-19T08:21:24;100843.56;;;12.01;78.46
82033;BME280;71595;52.180;4.512;2023-11-19T08:23:52;100834.06;;;12.02;78.89
82033;BME280;71595;52.180;4.512;2023-11-19T08:26:17;100832.59;;;12.05;78.82
82033;BME280;71595;52.180;4.512;2023-11-19T08:28:43;100831.19;;;12.11;78.19
82033;BME280;71595;52.180;4.512;2023-11-19T08:31:08;100830.38;;;12.11;78.71
82033;BME280;71595;52.180;4.512;2023-11-19T08:33:33;100833.59;;;12.13;78.29
82033;BME280;71595;52.180;4.512;2023-11-19T08:35:59;100831.28;;;12.15;78.55
82033;BME280;71595;52.180;4.512;2023-11-19T08:38:24;100832.06;;;12.15;78.88
82033;BME280;71595;52.180;4.512;2023-11-19T08:40:50;100842.34;;;12.15;79.25
82033;BME280;71595;52.180;4.512;2023-11-19T08:43:17;100847.19;;;12.18;79.09
82033;BME280;71595;52.180;4.512;2023-11-19T08:45:42;100848.09;;;12.22;78.22
82033;BME280;71595;52.180;4.512;2023-11-19T08:48:08;100839.91;;;12.26;78.53
82033;BME280;71595;52.180;4.512;2023-11-19T08:50:33;100844.28;;;12.27;78.82
82033;BME280;71595;52.180;4.512;2023-11-19T08:52:58;100845.53;;;12.29;78.53
82033;BME280;71595;52.180;4.512;2023-11-19T08:55:24;100844.81;;;12.32;78.31
82033;BME280;71595;52.180;4.512;2023-11-19T08:57:51;100842.06;;;12.32;78.29
82033;BME280;71595;52.180;4.512;2023-11-19T09:00:16;100838.16;;;12.33;78.12
82033;BME280;71595;52.180;4.512;2023-11-19T09:02:43;100821.97;;;12.35;77.93
82033;BME280;71595;52.180;4.512;2023-11-19T09:05:08;100832.69;;;12.37;78.45
82033;BME280;71595;52.180;4.512;2023-11-19T09:07:35;100839.06;;;12.37;78.20
82033;BME280;71595;52.180;4.512;2023-11-19T09:10:00;100816.78;;;12.34;78.13
82033;BME280;71595;52.180;4.512;2023-11-19T09:12:26;100830.06;;;12.40;78.87
82033;BME280;71595;52.180;4.512;2023-11-19T09:14:51;100824.97;;;12.43;77.78
82033;BME280;71595;52.180;4.512;2023-11-19T09:17:16;100824.16;;;12.42;78.31
82033;BME280;71595;52.180;4.512;2023-11-19T09:19:43;100823.09;;;12.47;77.88
82033;BME280;71595;52.180;4.512;2023-11-19T09:22:08;100819.97;;;12.48;77.98
82033;BME280;71595;52.180;4.512;2023-11-19T09:24:33;100810.84;;;12.48;78.11
82033;BME280;71595;52.180;4.512;2023-11-19T09:26:59;100823.53;;;12.49;78.02
82033;BME280;71595;52.180;4.512;2023-11-19T09:29:25;100828.38;;;12.52;77.89
82033;BME280;71595;52.180;4.512;2023-11-19T09:31:50;100825.59;;;12.52;77.41
82033;BME280;71595;52.180;4.512;2023-11-19T09:34:16;100822.03;;;12.51;77.92
82033;BME280;71595;52.180;4.512;2023-11-19T09:36:41;100827.22;;;12.53;78.05
82033;BME280;71595;52.180;4.512;2023-11-19T09:39:12;100821.34;;;12.54;77.87
82033;BME280;71595;52.180;4.512;2023-11-19T09:41:40;100814.25;;;12.57;77.94
82033;BME280;71595;52.180;4.512;2023-11-19T09:44:06;100826.97;;;12.58;77.47
82033;BME280;71595;52.180;4.512;2023-11-19T09:46:32;100825.69;;;12.55;77.49
82033;BME280;71595;52.180;4.512;2023-11-19T09:48:58;100827.75;;;12.58;77.45
82033;BME280;71595;52.180;4.512;2023-11-19T09:51:24;100831.00;;;12.61;77.73
82033;BME280;71595;52.180;4.512;2023-11-19T09:53:50;100814.47;;;12.64;77.04
82033;BME280;71595;52.180;4.512;2023-11-19T09:56:16;100831.97;;;12.68;76.99
82033;BME280;71595;52.180;4.512;2023-11-19T09:58:44;100838.63;;;12.80;76.19
82033;BME280;71595;52.180;4.512;2023-11-19T10:01:10;100835.88;;;12.80;76.65
82033;BME280;71595;52.180;4.512;2023-11-19T10:03:38;100844.88;;;12.76;77.06
82033;BME280;71595;52.180;4.512;2023-11-19T10:06:08;100851.38;;;12.68;78.46
82033;BME280;71595;52.180;4.512;2023-11-19T10:08:37;100838.97;;;12.62;78.86
82033;BME280;71595;52.180;4.512;2023-11-19T10:11:02;100833.06;;;12.64;79.74
82033;BME280;71595;52.180;4.512;2023-11-19T10:13:28;100824.63;;;12.60;79.79
82033;BME280;71595;52.180;4.512;2023-11-19T10:15:55;100817.59;;;12.63;79.13
82033;BME280;71595;52.180;4.512;2023-11-19T10:18:25;100825.56;;;12.64;78.66
82033;BME280;71595;52.180;4.512;2023-11-19T10:20:52;100827.16;;;12.65;77.71
82033;BME280;71595;52.180;4.512;2023-11-19T10:23:17;100816.53;;;12.67;77.70
82033;BME280;71595;52.180;4.512;2023-11-19T10:25:42;100824.03;;;12.67;77.30
82033;BME280;71595;52.180;4.512;2023-11-19T10:28:08;100811.44;;;12.69;77.21
82033;BME280;71595;52.180;4.512;2023-11-19T10:30:33;100808.03;;;12.76;76.63
82033;BME280;71595;52.180;4.512;2023-11-19T10:35:27;100812.53;;;12.81;76.00
82033;BME280;71595;52.180;4.512;2023-11-19T10:37:53;100815.03;;;12.86;75.25
82033;BME280;71595;52.180;4.512;2023-11-19T10:40:18;100808.69;;;12.85;74.81
82033;BME280;71595;52.180;4.512;2023-11-19T10:42:44;100807.19;;;12.88;75.19
82033;BME280;71595;52.180;4.512;2023-11-19T10:45:22;100817.56;;;12.91;75.18
82033;BME280;71595;52.180;4.512;2023-11-19T10:47:51;100820.75;;;12.93;74.92
82033;BME280;71595;52.180;4.512;2023-11-19T10:56:58;100811.38;;;12.98;74.89
82033;BME280;71595;52.180;4.512;2023-11-19T10:59:28;100824.88;;;12.99;74.76
82033;BME280;71595;52.180;4.512;2023-11-19T11:01:56;100809.88;;;13.00;74.76
82033;BME280;71595;52.180;4.512;2023-11-19T11:04:25;100812.28;;;13.02;74.91
82033;BME280;71595;52.180;4.512;2023-11-19T11:06:54;100819.34;;;12.99;74.18
82033;BME280;71595;52.180;4.512;2023-11-19T11:09:20;100813.78;;;12.99;74.19
82033;BME280;71595;52.180;4.512;2023-11-19T11:11:47;100815.34;;;12.97;74.21
82033;BME280;71595;52.180;4.512;2023-11-19T11:14:13;100815.41;;;13.00;74.16
82033;BME280;71595;52.180;4.512;2023-11-19T11:16:46;100809.88;;;13.00;72.76
82033;BME280;71595;52.180;4.512;2023-11-19T11:19:13;100810.66;;;13.01;73.08
82033;BME280;71595;52.180;4.512;2023-11-19T11:21:42;100807.44;;;12.99;73.20
82033;BME280;71595;52.180;4.512;2023-11-19T11:35:27;100801.13;;;12.98;73.84
82033;BME280;71595;52.180;4.512;2023-11-19T11:38:07;100799.50;;;12.97;73.99
82033;BME280;71595;52.180;4.512;2023-11-19T11:40:33;100789.31;;;13.01;73.99
82033;BME280;71595;52.180;4.512;2023-11-19T11:42:59;100791.44;;;13.08;73.21
82033;BME280;71595;52.180;4.512;2023-11-19T11:45:40;100787.59;;;13.12;73.74
82033;BME280;71595;52.180;4.512;2023-11-19T11:48:09;100780.91;;;13.13;73.38
82033;BME280;71595;52.180;4.512;2023-11-19T11:50:53;100788.75;;;13.11;74.08
82033;BME280;71595;52.180;4.512;2023-11-19T11:53:21;100770.53;;;13.10;73.39
82033;BME280;71595;52.180;4.512;2023-11-19T11:58:26;100770.78;;;13.05;73.58
82033;BME280;71595;52.180;4.512;2023-11-19T12:00:52;100771.59;;;13.06;73.70
82033;BME280;71595;52.180;4.512;2023-11-19T12:03:20;100782.34;;;13.07;73.38
82033;BME280;71595;52.180;4.512;2023-11-19T12:05:49;100781.16;;;13.08;74.01
82033;BME280;71595;52.180;4.512;2023-11-19T12:08:18;100769.63;;;13.06;74.18
82033;BME280;71595;52.180;4.512;2023-11-19T12:13:15;100781.88;;;13.05;73.40
82033;BME280;71595;52.180;4.512;2023-11-19T12:18:23;100768.00;;;13.05;72.92
82033;BME280;71595;52.180;4.512;2023-11-19T12:20:48;100773.75;;;13.12;73.15
82033;BME280;71595;52.180;4.512;2023-11-19T12:23:14;100797.53;;;13.13;73.25
82033;BME280;71595;52.180;4.512;2023-11-19T12:25:39;100794.31;;;13.11;73.14
82033;BME280;71595;52.180;4.512;2023-11-19T12:28:05;100794.16;;;13.04;74.03
82033;BME280;71595;52.180;4.512;2023-11-19T12:30:30;100795.72;;;13.05;73.94
82033;BME280;71595;52.180;4.512;2023-11-19T12:32:56;100783.06;;;13.04;74.43
82033;BME280;71595;52.180;4.512;2023-11-19T12:35:22;100784.47;;;12.98;74.61
82033;BME280;71595;52.180;4.512;2023-11-19T12:37:49;100782.16;;;13.00;74.54
82033;BME280;71595;52.180;4.512;2023-11-19T12:42:41;100778.13;;;12.98;75.64
82033;BME280;71595;52.180;4.512;2023-11-19T12:45:07;100784.38;;;12.94;76.16
82033;BME280;71595;52.180;4.512;2023-11-19T12:47:35;100774.09;;;12.95;75.79
82033;BME280;71595;52.180;4.512;2023-11-19T12:50:01;100776.78;;;12.91;75.64
82033;BME280;71595;52.180;4.512;2023-11-19T12:52:26;100777.25;;;12.93;75.04
82033;BME280;71595;52.180;4.512;2023-11-19T12:54:52;100784.72;;;12.93;75.50
82033;BME280;71595;52.180;4.512;2023-11-19T12:57:17;100782.31;;;12.91;75.62
82033;BME280;71595;52.180;4.512;2023-11-19T12:59:55;100777.84;;;12.87;75.82
82033;BME280;71595;52.180;4.512;2023-11-19T13:02:22;100786.16;;;12.87;76.40
82033;BME280;71595;52.180;4.512;2023-11-19T13:04:48;100780.16;;;12.85;77.58
82033;BME280;71595;52.180;4.512;2023-11-19T13:07:20;100788.13;;;12.86;78.35
82033;BME280;71595;52.180;4.512;2023-11-19T13:09:46;100787.34;;;12.86;78.72
82033;BME280;71595;52.180;4.512;2023-11-19T13:12:15;100785.72;;;12.85;78.06
82033;BME280;71595;52.180;4.512;2023-11-19T13:14:41;100783.31;;;12.83;77.88
82033;BME280;71595;52.180;4.512;2023-11-19T13:17:15;100780.59;;;12.87;77.88